sensor_id;sensor_type;location;lat;lon;timestamp;P1;durP1;ratioP1;P2;durP2;ratioP2
62711;SDS011;48772;55.586;37.730;2022-08-19T00:00:20;8.95;;;5.60;;
62711;SDS011;48772;55.586;37.730;2022-08-19T00:02:46;14.65;;;6.32;;
62711;SDS011;48772;55.586;37.730;2022-08-19T00:05:13;12.77;;;5.68;;
62711;SDS011;48772;55.586;37.730;2022-08-19T00:07:41;10.30;;;5.93;;
62711;SDS011;48772;55.586;37.730;2022-08-19T00:10:08;11.10;;;6.05;;
62711;SDS011;48772;55.586;37.730;2022-08-19T00:12:37;13.18;;;5.65;;
62711;SDS011;48772;55.586;37.730;2022-08-19T00:15:04;9.85;;;6.35;;
62711;SDS011;48772;55.586;37.730;2022-08-19T00:17:31;12.88;;;6.68;;
62711;SDS011;48772;55.586;37.730;2022-08-19T00:19:57;11.00;;;6.20;;
62711;SDS011;48772;55.586;37.730;2022-08-19T00:22:22;12.23;;;5.97;;
62711;SDS011;48772;55.586;37.730;2022-08-19T00:24:48;10.65;;;5.95;;
62711;SDS011;48772;55.586;37.730;2022-08-19T00:27:14;13.10;;;5.97;;
62711;SDS011;48772;55.586;37.730;2022-08-19T00:29:40;11.50;;;6.25;;
62711;SDS011;48772;55.586;37.730;2022-08-19T00:32:06;11.70;;;6.57;;
62711;SDS011;48772;55.586;37.730;2022-08-19T00:34:32;11.75;;;6.10;;
62711;SDS011;48772;55.586;37.730;2022-08-19T00:36:58;16.08;;;6.05;;
62711;SDS011;48772;55.586;37.730;2022-08-19T00:39:24;9.32;;;5.70;;
62711;SDS011;48772;55.586;37.730;2022-08-19T00:41:50;9.70;;;5.93;;
62711;SDS011;48772;55.586;37.730;2022-08-19T00:44:18;13.02;;;5.80;;
62711;SDS011;48772;55.586;37.730;2022-08-19T00:46:47;9.98;;;5.75;;
62711;SDS011;48772;55.586;37.730;2022-08-19T00:49:16;10.45;;;5.32;;
62711;SDS011;48772;55.586;37.730;2022-08-19T00:51:42;10.48;;;4.97;;
62711;SDS011;48772;55.586;37.730;2022-08-19T00:54:12;15.93;;;5.53;;
62711;SDS011;48772;55.586;37.730;2022-08-19T00:56:38;8.00;;;4.70;;
62711;SDS011;48772;55.586;37.730;2022-08-19T00:59:05;8.77;;;4.65;;
62711;SDS011;48772;55.586;37.730;2022-08-19T01:01:37;11.98;;;4.70;;
62711;SDS011;48772;55.586;37.730;2022-08-19T01:04:05;12.18;;;4.45;;
62711;SDS011;48772;55.586;37.730;2022-08-19T01:06:31;8.75;;;4.22;;
62711;SDS011;48772;55.586;37.730;2022-08-19T01:08:58;5.60;;;4.47;;
62711;SDS011;48772;55.586;37.730;2022-08-19T01:11:25;8.30;;;4.93;;
62711;SDS011;48772;55.586;37.730;2022-08-19T01:13:52;10.30;;;4.72;;
62711;SDS011;48772;55.586;37.730;2022-08-19T01:16:19;11.27;;;4.63;;
62711;SDS011;48772;55.586;37.730;2022-08-19T01:18:47;9.60;;;4.50;;
62711;SDS011;48772;55.586;37.730;2022-08-19T01:21:28;13.13;;;4.10;;
62711;SDS011;48772;55.586;37.730;2022-08-19T01:23:59;8.85;;;3.80;;
62711;SDS011;48772;55.586;37.730;2022-08-19T01:26:26;7.15;;;4.03;;
62711;SDS011;48772;55.586;37.730;2022-08-19T01:28:54;14.43;;;3.75;;
62711;SDS011;48772;55.586;37.730;2022-08-19T01:31:24;9.02;;;3.75;;
62711;SDS011;48772;55.586;37.730;2022-08-19T01:33:52;9.70;;;4.18;;
62711;SDS011;48772;55.586;37.730;2022-08-19T01:36:43;5.10;;;3.72;;
62711;SDS011;48772;55.586;37.730;2022-08-19T01:39:15;6.88;;;3.95;;
62711;SDS011;48772;55.586;37.730;2022-08-19T01:41:44;7.38;;;4.15;;
62711;SDS011;48772;55.586;37.730;2022-08-19T01:44:11;5.70;;;3.78;;
62711;SDS011;48772;55.586;37.730;2022-08-19T01:46:37;9.25;;;3.70;;
62711;SDS011;48772;55.586;37.730;2022-08-19T01:49:03;6.95;;;3.50;;
62711;SDS011;48772;55.586;37.730;2022-08-19T01:51:30;8.00;;;3.50;;
62711;SDS011;48772;55.586;37.730;2022-08-19T01:53:57;4.07;;;3.00;;
62711;SDS011;48772;55.586;37.730;2022-08-19T01:56:23;3.28;;;2.97;;
62711;SDS011;48772;55.586;37.730;2022-08-19T01:58:55;4.10;;;3.03;;
62711;SDS011;48772;55.586;37.730;2022-08-19T02:01:25;5.82;;;3.78;;
62711;SDS011;48772;55.586;37.730;2022-08-19T02:03:51;4.97;;;3.10;;
62711;SDS011;48772;55.586;37.730;2022-08-19T02:06:19;8.23;;;3.28;;
62711;SDS011;48772;55.586;37.730;2022-08-19T02:08:45;10.38;;;3.17;;
62711;SDS011;48772;55.586;37.730;2022-08-19T02:11:18;7.55;;;3.22;;
62711;SDS011;48772;55.586;37.730;2022-08-19T02:13:46;12.82;;;3.65;;
62711;SDS011;48772;55.586;37.730;2022-08-19T02:16:12;5.78;;;3.38;;
62711;SDS011;48772;55.586;37.730;2022-08-19T02:18:38;10.88;;;3.30;;
62711;SDS011;48772;55.586;37.730;2022-08-19T02:21:04;4.53;;;3.30;;
62711;SDS011;48772;55.586;37.730;2022-08-19T02:23:30;6.65;;;3.50;;
62711;SDS011;48772;55.586;37.730;2022-08-19T02:25:56;4.10;;;3.20;;
62711;SDS011;48772;55.586;37.730;2022-08-19T02:28:22;10.43;;;3.58;;
62711;SDS011;48772;55.586;37.730;2022-08-19T02:30:48;5.55;;;3.15;;
62711;SDS011;48772;55.586;37.730;2022-08-19T02:33:14;11.15;;;3.20;;
62711;SDS011;48772;55.586;37.730;2022-08-19T02:35:41;7.07;;;3.42;;
62711;SDS011;48772;55.586;37.730;2022-08-19T02:38:11;11.52;;;3.22;;
62711;SDS011;48772;55.586;37.730;2022-08-19T02:41:02;12.23;;;4.07;;
62711;SDS011;48772;55.586;37.730;2022-08-19T02:43:33;9.20;;;3.45;;
62711;SDS011;48772;55.586;37.730;2022-08-19T02:48:52;9.90;;;3.90;;
62711;SDS011;48772;55.586;37.730;2022-08-19T02:51:26;4.47;;;3.78;;
62711;SDS011;48772;55.586;37.730;2022-08-19T02:53:58;7.80;;;3.80;;
62711;SDS011;48772;55.586;37.730;2022-08-19T02:56:25;6.43;;;3.60;;
62711;SDS011;48772;55.586;37.730;2022-08-19T02:58:52;12.55;;;3.80;;
62711;SDS011;48772;55.586;37.730;2022-08-19T03:01:20;9.63;;;3.88;;
62711;SDS011;48772;55.586;37.730;2022-08-19T03:03:50;14.65;;;3.70;;
62711;SDS011;48772;55.586;37.730;2022-08-19T03:06:16;10.80;;;3.78;;
62711;SDS011;48772;55.586;37.730;2022-08-19T03:08:43;9.95;;;3.47;;
62711;SDS011;48772;55.586;37.730;2022-08-19T03:11:18;9.20;;;3.72;;
62711;SDS011;48772;55.586;37.730;2022-08-19T03:13:46;10.20;;;4.20;;
62711;SDS011;48772;55.586;37.730;2022-08-19T03:16:14;10.65;;;4.30;;
62711;SDS011;48772;55.586;37.730;2022-08-19T03:18:44;8.68;;;3.90;;
62711;SDS011;48772;55.586;37.730;2022-08-19T03:21:14;7.72;;;3.88;;
62711;SDS011;48772;55.586;37.730;2022-08-19T03:26:10;13.20;;;4.15;;
62711;SDS011;48772;55.586;37.730;2022-08-19T03:28:36;7.28;;;3.97;;
62711;SDS011;48772;55.586;37.730;2022-08-19T03:31:07;7.05;;;4.07;;
62711;SDS011;48772;55.586;37.730;2022-08-19T03:33:36;11.65;;;4.40;;
62711;SDS011;48772;55.586;37.730;2022-08-19T03:38:36;9.20;;;4.50;;
62711;SDS011;48772;55.586;37.730;2022-08-19T03:41:08;9.27;;;4.30;;
62711;SDS011;48772;55.586;37.730;2022-08-19T03:43:37;10.43;;;4.35;;
62711;SDS011;48772;55.586;37.730;2022-08-19T03:46:06;16.08;;;4.80;;
62711;SDS011;48772;55.586;37.730;2022-08-19T03:48:33;14.32;;;4.80;;
62711;SDS011;48772;55.586;37.730;2022-08-19T03:51:02;13.50;;;4.57;;
62711;SDS011;48772;55.586;37.730;2022-08-19T03:53:29;10.40;;;4.63;;
62711;SDS011;48772;55.586;37.730;2022-08-19T03:55:56;10.95;;;4.50;;
62711;SDS011;48772;55.586;37.730;2022-08-19T03:58:25;13.57;;;4.50;;
62711;SDS011;48772;55.586;37.730;2022-08-19T04:00:54;10.85;;;4.50;;
62711;SDS011;48772;55.586;37.730;2022-08-19T04:03:22;8.93;;;4.50;;
62711;SDS011;48772;55.586;37.730;2022-08-19T04:05:49;9.10;;;4.60;;
62711;SDS011;48772;55.586;37.730;2022-08-19T04:08:15;14.55;;;4.75;;
62711;SDS011;48772;55.586;37.730;2022-08-19T04:10:44;9.05;;;4.50;;
62711;SDS011;48772;55.586;37.730;2022-08-19T04:13:10;11.75;;;4.60;;
62711;SDS011;48772;55.586;37.730;2022-08-19T04:15:39;16.10;;;5.00;;
62711;SDS011;48772;55.586;37.730;2022-08-19T04:18:09;12.07;;;4.55;;
62711;SDS011;48772;55.586;37.730;2022-08-19T04:20:45;13.63;;;4.40;;
62711;SDS011;48772;55.586;37.730;2022-08-19T04:23:13;16.15;;;4.45;;
62711;SDS011;48772;55.586;37.730;2022-08-19T04:25:41;12.65;;;4.60;;
62711;SDS011;48772;55.586;37.730;2022-08-19T04:28:09;12.05;;;4.45;;
62711;SDS011;48772;55.586;37.730;2022-08-19T04:30:38;11.32;;;4.60;;
62711;SDS011;48772;55.586;37.730;2022-08-19T04:33:09;17.60;;;4.40;;
62711;SDS011;48772;55.586;37.730;2022-08-19T04:35:36;14.85;;;4.70;;
62711;SDS011;48772;55.586;37.730;2022-08-19T04:38:03;13.90;;;4.10;;
62711;SDS011;48772;55.586;37.730;2022-08-19T04:40:30;13.98;;;4.20;;
62711;SDS011;48772;55.586;37.730;2022-08-19T04:43:14;9.52;;;5.22;;
62711;SDS011;48772;55.586;37.730;2022-08-19T04:45:42;11.70;;;4.47;;
62711;SDS011;48772;55.586;37.730;2022-08-19T04:48:08;10.95;;;4.00;;
62711;SDS011;48772;55.586;37.730;2022-08-19T04:50:35;9.23;;;4.20;;
62711;SDS011;48772;55.586;37.730;2022-08-19T04:53:04;12.52;;;4.10;;
62711;SDS011;48772;55.586;37.730;2022-08-19T04:55:30;13.05;;;4.40;;
62711;SDS011;48772;55.586;37.730;2022-08-19T04:57:56;10.18;;;4.18;;
62711;SDS011;48772;55.586;37.730;2022-08-19T05:00:22;14.32;;;3.85;;
62711;SDS011;48772;55.586;37.730;2022-08-19T05:02:47;8.77;;;4.10;;
62711;SDS011;48772;55.586;37.730;2022-08-19T05:05:17;10.98;;;4.20;;
62711;SDS011;48772;55.586;37.730;2022-08-19T05:07:43;11.88;;;3.88;;
62711;SDS011;48772;55.586;37.730;2022-08-19T05:10:09;14.38;;;4.07;;
62711;SDS011;48772;55.586;37.730;2022-08-19T05:12:36;10.00;;;4.20;;
62711;SDS011;48772;55.586;37.730;2022-08-19T05:15:07;10.75;;;4.20;;
62711;SDS011;48772;55.586;37.730;2022-08-19T05:17:36;11.75;;;4.25;;
62711;SDS011;48772;55.586;37.730;2022-08-19T05:20:03;10.80;;;4.00;;
62711;SDS011;48772;55.586;37.730;2022-08-19T05:22:48;8.60;;;4.40;;
62711;SDS011;48772;55.586;37.730;2022-08-19T05:25:15;8.45;;;4.50;;
62711;SDS011;48772;55.586;37.730;2022-08-19T05:27:44;15.45;;;4.20;;
62711;SDS011;48772;55.586;37.730;2022-08-19T05:30:10;14.70;;;4.00;;
62711;SDS011;48772;55.586;37.730;2022-08-19T05:32:37;7.40;;;4.07;;
62711;SDS011;48772;55.586;37.730;2022-08-19T05:35:04;10.35;;;4.50;;
62711;SDS011;48772;55.586;37.730;2022-08-19T05:37:31;7.78;;;4.05;;
62711;SDS011;48772;55.586;37.730;2022-08-19T05:39:56;11.15;;;4.18;;
62711;SDS011;48772;55.586;37.730;2022-08-19T05:42:22;15.25;;;4.50;;
62711;SDS011;48772;55.586;37.730;2022-08-19T05:44:48;11.60;;;4.22;;
62711;SDS011;48772;55.586;37.730;2022-08-19T05:47:14;12.95;;;4.63;;
62711;SDS011;48772;55.586;37.730;2022-08-19T05:49:41;7.93;;;4.18;;
62711;SDS011;48772;55.586;37.730;2022-08-19T05:52:08;9.68;;;4.47;;
62711;SDS011;48772;55.586;37.730;2022-08-19T05:54:38;13.27;;;4.53;;
62711;SDS011;48772;55.586;37.730;2022-08-19T05:57:08;9.77;;;4.22;;
62711;SDS011;48772;55.586;37.730;2022-08-19T05:59:35;7.47;;;4.63;;
62711;SDS011;48772;55.586;37.730;2022-08-19T06:02:01;15.30;;;4.50;;
62711;SDS011;48772;55.586;37.730;2022-08-19T06:04:27;18.42;;;5.00;;
62711;SDS011;48772;55.586;37.730;2022-08-19T06:06:54;11.27;;;4.82;;
62711;SDS011;48772;55.586;37.730;2022-08-19T06:09:22;12.07;;;4.70;;
62711;SDS011;48772;55.586;37.730;2022-08-19T06:14:20;15.10;;;4.85;;
62711;SDS011;48772;55.586;37.730;2022-08-19T06:16:48;10.82;;;4.55;;
62711;SDS011;48772;55.586;37.730;2022-08-19T06:19:17;15.80;;;5.07;;
62711;SDS011;48772;55.586;37.730;2022-08-19T06:21:45;15.90;;;4.80;;
62711;SDS011;48772;55.586;37.730;2022-08-19T06:24:14;13.10;;;4.63;;
62711;SDS011;48772;55.586;37.730;2022-08-19T06:26:43;18.23;;;5.30;;
62711;SDS011;48772;55.586;37.730;2022-08-19T06:29:12;11.20;;;4.68;;
62711;SDS011;48772;55.586;37.730;2022-08-19T06:31:43;10.18;;;4.40;;
62711;SDS011;48772;55.586;37.730;2022-08-19T06:34:15;15.80;;;4.97;;
62711;SDS011;48772;55.586;37.730;2022-08-19T06:36:42;11.48;;;4.55;;
62711;SDS011;48772;55.586;37.730;2022-08-19T06:39:12;8.77;;;4.88;;
62711;SDS011;48772;55.586;37.730;2022-08-19T06:41:42;9.10;;;4.85;;
62711;SDS011;48772;55.586;37.730;2022-08-19T06:44:16;15.50;;;4.82;;
62711;SDS011;48772;55.586;37.730;2022-08-19T06:46:43;8.27;;;4.82;;
62711;SDS011;48772;55.586;37.730;2022-08-19T06:49:10;12.65;;;5.18;;
62711;SDS011;48772;55.586;37.730;2022-08-19T06:51:39;12.25;;;4.65;;
62711;SDS011;48772;55.586;37.730;2022-08-19T06:54:07;9.98;;;5.00;;
62711;SDS011;48772;55.586;37.730;2022-08-19T06:56:33;10.63;;;5.00;;
62711;SDS011;48772;55.586;37.730;2022-08-19T06:59:01;11.05;;;4.38;;
62711;SDS011;48772;55.586;37.730;2022-08-19T07:01:42;5.72;;;4.20;;
62711;SDS011;48772;55.586;37.730;2022-08-19T07:04:16;9.23;;;4.35;;
62711;SDS011;48772;55.586;37.730;2022-08-19T07:06:44;6.28;;;4.13;;
62711;SDS011;48772;55.586;37.730;2022-08-19T07:09:14;9.68;;;5.00;;
62711;SDS011;48772;55.586;37.730;2022-08-19T07:11:46;11.70;;;4.53;;
62711;SDS011;48772;55.586;37.730;2022-08-19T07:14:13;8.18;;;4.47;;
62711;SDS011;48772;55.586;37.730;2022-08-19T07:16:42;7.90;;;4.53;;
62711;SDS011;48772;55.586;37.730;2022-08-19T07:19:11;14.05;;;4.38;;
62711;SDS011;48772;55.586;37.730;2022-08-19T07:21:38;13.50;;;4.40;;
62711;SDS011;48772;55.586;37.730;2022-08-19T07:24:03;10.18;;;4.07;;
62711;SDS011;48772;55.586;37.730;2022-08-19T07:26:31;9.98;;;4.15;;
62711;SDS011;48772;55.586;37.730;2022-08-19T07:28:58;12.45;;;4.60;;
62711;SDS011;48772;55.586;37.730;2022-08-19T07:31:27;12.65;;;3.85;;
62711;SDS011;48772;55.586;37.730;2022-08-19T07:33:54;9.98;;;3.88;;
62711;SDS011;48772;55.586;37.730;2022-08-19T07:36:22;8.35;;;3.85;;
62711;SDS011;48772;55.586;37.730;2022-08-19T07:38:50;7.97;;;3.85;;
62711;SDS011;48772;55.586;37.730;2022-08-19T07:41:20;10.48;;;4.00;;
62711;SDS011;48772;55.586;37.730;2022-08-19T07:43:48;7.53;;;3.67;;
62711;SDS011;48772;55.586;37.730;2022-08-19T07:46:14;8.95;;;3.03;;
62711;SDS011;48772;55.586;37.730;2022-08-19T07:48:41;15.32;;;3.92;;
62711;SDS011;48772;55.586;37.730;2022-08-19T07:51:10;8.70;;;3.10;;
62711;SDS011;48772;55.586;37.730;2022-08-19T07:53:37;9.30;;;3.80;;
62711;SDS011;48772;55.586;37.730;2022-08-19T07:56:03;10.55;;;3.30;;
62711;SDS011;48772;55.586;37.730;2022-08-19T07:58:34;8.45;;;3.17;;
62711;SDS011;48772;55.586;37.730;2022-08-19T08:01:02;11.52;;;3.83;;
62711;SDS011;48772;55.586;37.730;2022-08-19T08:03:30;11.68;;;3.60;;
62711;SDS011;48772;55.586;37.730;2022-08-19T08:06:14;6.80;;;2.97;;
62711;SDS011;48772;55.586;37.730;2022-08-19T08:09:00;13.82;;;3.65;;
62711;SDS011;48772;55.586;37.730;2022-08-19T08:11:39;11.73;;;3.75;;
62711;SDS011;48772;55.586;37.730;2022-08-19T08:14:07;8.55;;;3.47;;
62711;SDS011;48772;55.586;37.730;2022-08-19T08:16:35;9.43;;;3.30;;
62711;SDS011;48772;55.586;37.730;2022-08-19T08:19:06;9.75;;;2.97;;
62711;SDS011;48772;55.586;37.730;2022-08-19T08:21:32;9.57;;;3.20;;
62711;SDS011;48772;55.586;37.730;2022-08-19T08:23:59;8.35;;;3.28;;
62711;SDS011;48772;55.586;37.730;2022-08-19T08:26:25;7.15;;;3.28;;
62711;SDS011;48772;55.586;37.730;2022-08-19T08:28:52;14.35;;;3.50;;
62711;SDS011;48772;55.586;37.730;2022-08-19T08:31:18;12.30;;;3.28;;
62711;SDS011;48772;55.586;37.730;2022-08-19T08:33:45;6.60;;;3.30;;
62711;SDS011;48772;55.586;37.730;2022-08-19T08:36:11;4.70;;;2.70;;
62711;SDS011;48772;55.586;37.730;2022-08-19T08:38:41;5.68;;;2.90;;
62711;SDS011;48772;55.586;37.730;2022-08-19T08:44:03;13.20;;;3.50;;
62711;SDS011;48772;55.586;37.730;2022-08-19T08:46:44;12.77;;;3.20;;
62711;SDS011;48772;55.586;37.730;2022-08-19T08:49:30;6.78;;;3.40;;
62711;SDS011;48772;55.586;37.730;2022-08-19T08:52:18;9.15;;;2.65;;
62711;SDS011;48772;55.586;37.730;2022-08-19T08:54:52;12.73;;;2.90;;
62711;SDS011;48772;55.586;37.730;2022-08-19T08:57:35;14.95;;;3.85;;
62711;SDS011;48772;55.586;37.730;2022-08-19T09:00:19;13.32;;;3.17;;
62711;SDS011;48772;55.586;37.730;2022-08-19T09:02:48;8.70;;;2.78;;
62711;SDS011;48772;55.586;37.730;2022-08-19T09:05:14;8.35;;;2.90;;
62711;SDS011;48772;55.586;37.730;2022-08-19T09:10:19;6.82;;;2.80;;
62711;SDS011;48772;55.586;37.730;2022-08-19T09:13:08;14.30;;;3.42;;
62711;SDS011;48772;55.586;37.730;2022-08-19T09:15:46;7.38;;;2.70;;
62711;SDS011;48772;55.586;37.730;2022-08-19T09:18:18;7.53;;;2.97;;
62711;SDS011;48772;55.586;37.730;2022-08-19T09:20:44;8.30;;;3.80;;
62711;SDS011;48772;55.586;37.730;2022-08-19T09:23:11;11.18;;;3.88;;
62711;SDS011;48772;55.586;37.730;2022-08-19T09:25:37;10.75;;;3.00;;
62711;SDS011;48772;55.586;37.730;2022-08-19T09:28:05;6.47;;;3.00;;
62711;SDS011;48772;55.586;37.730;2022-08-19T09:30:33;12.95;;;3.00;;
62711;SDS011;48772;55.586;37.730;2022-08-19T09:33:04;8.50;;;2.92;;
62711;SDS011;48772;55.586;37.730;2022-08-19T09:35:31;9.05;;;3.40;;
62711;SDS011;48772;55.586;37.730;2022-08-19T09:37:58;10.93;;;2.58;;
62711;SDS011;48772;55.586;37.730;2022-08-19T09:40:26;13.35;;;3.30;;
62711;SDS011;48772;55.586;37.730;2022-08-19T09:42:54;10.50;;;2.72;;
62711;SDS011;48772;55.586;37.730;2022-08-19T09:45:20;11.13;;;3.25;;
62711;SDS011;48772;55.586;37.730;2022-08-19T09:47:47;10.18;;;3.20;;
62711;SDS011;48772;55.586;37.730;2022-08-19T09:50:16;10.63;;;4.00;;
62711;SDS011;48772;55.586;37.730;2022-08-19T09:52:44;4.90;;;2.58;;
62711;SDS011;48772;55.586;37.730;2022-08-19T09:55:11;12.88;;;3.42;;
62711;SDS011;48772;55.586;37.730;2022-08-19T09:57:37;12.00;;;3.80;;
62711;SDS011;48772;55.586;37.730;2022-08-19T10:00:05;13.73;;;2.97;;
62711;SDS011;48772;55.586;37.730;2022-08-19T10:02:33;9.68;;;2.80;;
62711;SDS011;48772;55.586;37.730;2022-08-19T10:04:59;8.60;;;2.50;;
62711;SDS011;48772;55.586;37.730;2022-08-19T10:07:44;13.70;;;2.53;;
62711;SDS011;48772;55.586;37.730;2022-08-19T10:10:10;11.27;;;2.70;;
62711;SDS011;48772;55.586;37.730;2022-08-19T10:12:36;9.52;;;2.08;;
62711;SDS011;48772;55.586;37.730;2022-08-19T10:15:02;4.53;;;2.17;;
62711;SDS011;48772;55.586;37.730;2022-08-19T10:17:29;9.02;;;2.60;;
62711;SDS011;48772;55.586;37.730;2022-08-19T10:19:55;6.65;;;2.20;;
62711;SDS011;48772;55.586;37.730;2022-08-19T10:22:21;10.77;;;2.97;;
62711;SDS011;48772;55.586;37.730;2022-08-19T10:24:47;5.60;;;2.33;;
62711;SDS011;48772;55.586;37.730;2022-08-19T10:27:13;5.88;;;2.53;;
62711;SDS011;48772;55.586;37.730;2022-08-19T10:29:39;6.43;;;2.90;;
62711;SDS011;48772;55.586;37.730;2022-08-19T10:32:07;4.05;;;2.10;;
62711;SDS011;48772;55.586;37.730;2022-08-19T10:34:34;6.00;;;2.85;;
62711;SDS011;48772;55.586;37.730;2022-08-19T10:37:01;7.20;;;2.53;;
62711;SDS011;48772;55.586;37.730;2022-08-19T10:39:35;9.45;;;2.55;;
62711;SDS011;48772;55.586;37.730;2022-08-19T10:42:07;8.13;;;2.65;;
62711;SDS011;48772;55.586;37.730;2022-08-19T10:44:35;7.70;;;2.53;;
62711;SDS011;48772;55.586;37.730;2022-08-19T10:47:02;5.00;;;2.67;;
62711;SDS011;48772;55.586;37.730;2022-08-19T10:49:28;12.30;;;2.95;;
62711;SDS011;48772;55.586;37.730;2022-08-19T10:51:55;5.90;;;2.60;;
62711;SDS011;48772;55.586;37.730;2022-08-19T10:54:40;4.07;;;2.53;;
62711;SDS011;48772;55.586;37.730;2022-08-19T10:57:24;7.00;;;2.50;;
62711;SDS011;48772;55.586;37.730;2022-08-19T10:59:55;9.93;;;2.60;;
62711;SDS011;48772;55.586;37.730;2022-08-19T11:02:21;10.65;;;2.80;;
62711;SDS011;48772;55.586;37.730;2022-08-19T11:04:47;8.55;;;2.80;;
62711;SDS011;48772;55.586;37.730;2022-08-19T11:07:15;8.40;;;2.85;;
62711;SDS011;48772;55.586;37.730;2022-08-19T11:09:42;8.63;;;3.50;;
62711;SDS011;48772;55.586;37.730;2022-08-19T11:12:08;9.23;;;3.10;;
62711;SDS011;48772;55.586;37.730;2022-08-19T11:14:35;5.85;;;2.80;;
62711;SDS011;48772;55.586;37.730;2022-08-19T11:17:02;9.30;;;3.25;;
62711;SDS011;48772;55.586;37.730;2022-08-19T11:19:29;10.98;;;3.25;;
62711;SDS011;48772;55.586;37.730;2022-08-19T11:21:56;9.57;;;2.95;;
62711;SDS011;48772;55.586;37.730;2022-08-19T11:24:23;9.02;;;3.70;;
62711;SDS011;48772;55.586;37.730;2022-08-19T11:26:51;3.88;;;2.60;;
62711;SDS011;48772;55.586;37.730;2022-08-19T11:29:22;6.00;;;2.70;;
62711;SDS011;48772;55.586;37.730;2022-08-19T11:31:51;11.90;;;2.97;;
62711;SDS011;48772;55.586;37.730;2022-08-19T11:34:19;6.07;;;2.92;;
62711;SDS011;48772;55.586;37.730;2022-08-19T11:36:48;7.32;;;3.20;;
62711;SDS011;48772;55.586;37.730;2022-08-19T11:39:16;12.18;;;3.38;;
62711;SDS011;48772;55.586;37.730;2022-08-19T11:41:45;11.82;;;3.92;;
62711;SDS011;48772;55.586;37.730;2022-08-19T11:44:11;10.48;;;3.50;;
62711;SDS011;48772;55.586;37.730;2022-08-19T11:46:39;8.70;;;3.55;;
62711;SDS011;48772;55.586;37.730;2022-08-19T11:49:09;8.82;;;3.40;;
62711;SDS011;48772;55.586;37.730;2022-08-19T11:51:35;12.30;;;3.00;;
62711;SDS011;48772;55.586;37.730;2022-08-19T11:54:03;8.43;;;2.90;;
62711;SDS011;48772;55.586;37.730;2022-08-19T11:56:30;6.07;;;3.13;;
62711;SDS011;48772;55.586;37.730;2022-08-19T11:58:56;4.03;;;3.20;;
62711;SDS011;48772;55.586;37.730;2022-08-19T12:01:24;13.82;;;4.28;;
62711;SDS011;48772;55.586;37.730;2022-08-19T12:03:51;11.50;;;2.97;;
62711;SDS011;48772;55.586;37.730;2022-08-19T12:06:20;6.40;;;3.10;;
62711;SDS011;48772;55.586;37.730;2022-08-19T12:08:50;5.22;;;2.70;;
62711;SDS011;48772;55.586;37.730;2022-08-19T12:11:17;8.00;;;2.72;;
62711;SDS011;48772;55.586;37.730;2022-08-19T12:13:43;15.23;;;3.42;;
62711;SDS011;48772;55.586;37.730;2022-08-19T12:16:17;10.23;;;3.00;;
62711;SDS011;48772;55.586;37.730;2022-08-19T12:18:45;9.88;;;2.83;;
62711;SDS011;48772;55.586;37.730;2022-08-19T12:21:15;7.93;;;2.72;;
62711;SDS011;48772;55.586;37.730;2022-08-19T12:23:42;9.13;;;2.63;;
62711;SDS011;48772;55.586;37.730;2022-08-19T12:26:10;6.10;;;2.72;;
62711;SDS011;48772;55.586;37.730;2022-08-19T12:28:37;7.35;;;2.70;;
62711;SDS011;48772;55.586;37.730;2022-08-19T12:31:03;10.32;;;3.10;;
62711;SDS011;48772;55.586;37.730;2022-08-19T12:33:29;9.73;;;3.00;;
62711;SDS011;48772;55.586;37.730;2022-08-19T12:36:00;8.88;;;3.75;;
62711;SDS011;48772;55.586;37.730;2022-08-19T12:38:29;6.68;;;2.70;;
62711;SDS011;48772;55.586;37.730;2022-08-19T12:40:55;8.35;;;2.92;;
62711;SDS011;48772;55.586;37.730;2022-08-19T12:43:21;20.10;;;3.50;;
62711;SDS011;48772;55.586;37.730;2022-08-19T12:45:47;12.65;;;3.00;;
62711;SDS011;48772;55.586;37.730;2022-08-19T12:48:13;10.40;;;3.08;;
62711;SDS011;48772;55.586;37.730;2022-08-19T12:50:40;7.10;;;2.40;;
62711;SDS011;48772;55.586;37.730;2022-08-19T12:53:07;6.35;;;2.80;;
62711;SDS011;48772;55.586;37.730;2022-08-19T12:55:32;12.52;;;3.08;;
62711;SDS011;48772;55.586;37.730;2022-08-19T12:57:59;7.35;;;3.08;;
62711;SDS011;48772;55.586;37.730;2022-08-19T13:00:27;11.10;;;2.72;;
62711;SDS011;48772;55.586;37.730;2022-08-19T13:02:53;19.65;;;4.07;;
62711;SDS011;48772;55.586;37.730;2022-08-19T13:05:20;6.20;;;3.35;;
62711;SDS011;48772;55.586;37.730;2022-08-19T13:07:48;17.40;;;4.45;;
62711;SDS011;48772;55.586;37.730;2022-08-19T13:10:17;9.23;;;3.60;;
62711;SDS011;48772;55.586;37.730;2022-08-19T13:12:47;8.55;;;3.00;;
62711;SDS011;48772;55.586;37.730;2022-08-19T13:15:14;6.22;;;2.92;;
62711;SDS011;48772;55.586;37.730;2022-08-19T13:17:45;17.90;;;4.45;;
62711;SDS011;48772;55.586;37.730;2022-08-19T13:20:14;8.30;;;3.67;;
62711;SDS011;48772;55.586;37.730;2022-08-19T13:22:41;20.75;;;4.03;;
62711;SDS011;48772;55.586;37.730;2022-08-19T13:25:07;11.52;;;3.60;;
62711;SDS011;48772;55.586;37.730;2022-08-19T13:27:34;13.85;;;3.63;;
62711;SDS011;48772;55.586;37.730;2022-08-19T13:30:02;16.80;;;7.00;;
62711;SDS011;48772;55.586;37.730;2022-08-19T13:32:47;18.30;;;9.73;;
62711;SDS011;48772;55.586;37.730;2022-08-19T13:35:31;14.50;;;8.30;;
62711;SDS011;48772;55.586;37.730;2022-08-19T13:37:57;10.95;;;8.55;;
62711;SDS011;48772;55.586;37.730;2022-08-19T13:40:23;16.23;;;8.20;;
62711;SDS011;48772;55.586;37.730;2022-08-19T13:42:52;20.45;;;7.75;;
62711;SDS011;48772;55.586;37.730;2022-08-19T13:45:21;12.68;;;7.28;;
62711;SDS011;48772;55.586;37.730;2022-08-19T13:47:49;14.82;;;8.27;;
62711;SDS011;48772;55.586;37.730;2022-08-19T13:50:17;17.63;;;9.57;;
62711;SDS011;48772;55.586;37.730;2022-08-19T13:52:47;10.27;;;8.18;;
62711;SDS011;48772;55.586;37.730;2022-08-19T13:55:14;16.23;;;10.65;;
62711;SDS011;48772;55.586;37.730;2022-08-19T13:57:41;15.35;;;10.45;;
62711;SDS011;48772;55.586;37.730;2022-08-19T14:00:10;16.90;;;10.82;;
62711;SDS011;48772;55.586;37.730;2022-08-19T14:02:38;24.92;;;13.25;;
62711;SDS011;48772;55.586;37.730;2022-08-19T14:05:06;15.35;;;12.75;;
62711;SDS011;48772;55.586;37.730;2022-08-19T14:07:34;14.98;;;11.30;;
62711;SDS011;48772;55.586;37.730;2022-08-19T14:10:00;22.00;;;9.77;;
62711;SDS011;48772;55.586;37.730;2022-08-19T14:12:26;22.15;;;9.32;;
62711;SDS011;48772;55.586;37.730;2022-08-19T14:14:51;12.48;;;8.32;;
62711;SDS011;48772;55.586;37.730;2022-08-19T14:17:17;17.48;;;7.80;;
62711;SDS011;48772;55.586;37.730;2022-08-19T14:19:43;16.77;;;8.35;;
62711;SDS011;48772;55.586;37.730;2022-08-19T14:22:09;21.77;;;7.95;;
62711;SDS011;48772;55.586;37.730;2022-08-19T14:24:36;19.83;;;7.65;;
62711;SDS011;48772;55.586;37.730;2022-08-19T14:27:05;9.10;;;7.63;;
62711;SDS011;48772;55.586;37.730;2022-08-19T14:29:32;17.42;;;8.15;;
62711;SDS011;48772;55.586;37.730;2022-08-19T14:31:59;15.35;;;9.90;;
62711;SDS011;48772;55.586;37.730;2022-08-19T14:34:25;15.52;;;9.82;;
62711;SDS011;48772;55.586;37.730;2022-08-19T14:36:52;11.82;;;8.50;;
62711;SDS011;48772;55.586;37.730;2022-08-19T14:39:18;23.60;;;8.60;;
62711;SDS011;48772;55.586;37.730;2022-08-19T14:41:44;13.48;;;8.50;;
62711;SDS011;48772;55.586;37.730;2022-08-19T14:44:10;11.75;;;8.38;;
62711;SDS011;48772;55.586;37.730;2022-08-19T14:46:38;13.85;;;6.85;;
62711;SDS011;48772;55.586;37.730;2022-08-19T14:49:04;18.13;;;7.15;;
62711;SDS011;48772;55.586;37.730;2022-08-19T14:51:30;16.73;;;5.90;;